createdAt,value
2019-04-27T00:01:16.905Z,11.30
2019-04-27T00:04:04.102Z,11.20
2019-04-27T00:06:33.868Z,11.30
2019-04-27T00:09:11.580Z,11.30
2019-04-27T00:11:45.534Z,11.20
2019-04-27T00:14:17.964Z,11.30
2019-04-27T00:17:06.907Z,11.20
2019-04-27T00:19:50.245Z,11.20
2019-04-27T00:22:30.586Z,11.10
2019-04-27T00:24:59.395Z,11.00
2019-04-27T00:27:28.143Z,11.00
2019-04-27T00:29:56.875Z,11.00
2019-04-27T00:32:25.684Z,10.90
2019-04-27T00:34:54.373Z,10.90
2019-04-27T00:37:44.972Z,10.90
2019-04-27T00:40:27.226Z,10.90
2019-04-27T00:42:55.958Z,10.90
2019-04-27T00:45:24.851Z,10.90
2019-04-27T00:47:59.058Z,10.90
2019-04-27T00:50:24.035Z,10.80
2019-04-27T00:52:53.269Z,10.80
2019-04-27T00:55:23.464Z,10.70
2019-04-27T00:58:18.058Z,10.70
2019-04-27T01:01:04.787Z,10.70
2019-04-27T01:03:37.153Z,10.60
2019-04-27T01:06:05.981Z,10.60
2019-04-27T01:08:34.839Z,10.50
2019-04-27T01:11:03.709Z,10.50
2019-04-27T01:13:34.770Z,10.50
2019-04-27T01:16:03.020Z,10.40
2019-04-27T01:18:31.760Z,10.40
2019-04-27T01:21:00.652Z,10.40
2019-04-27T01:23:29.488Z,10.40
2019-04-27T01:26:35.230Z,10.40
2019-04-27T01:29:15.441Z,10.40
2019-04-27T01:31:44.288Z,10.40
2019-04-27T01:34:13.078Z,10.30
2019-04-27T01:36:41.949Z,10.30
2019-04-27T01:39:14.483Z,10.30
2019-04-27T01:41:43.295Z,10.30
2019-04-27T01:44:12.168Z,10.30
2019-04-27T01:46:42.116Z,10.30
2019-04-27T01:49:10.894Z,10.30
2019-04-27T01:51:39.650Z,10.20
2019-04-27T01:54:10.506Z,10.20
2019-04-27T01:56:39.542Z,10.10
2019-04-27T01:59:08.776Z,10.00
2019-04-27T02:02:05.481Z,10.10
2019-04-27T02:04:59.421Z,10.00
2019-04-27T02:07:30.139Z,9.90
2019-04-27T02:09:58.927Z,9.90
2019-04-27T02:12:29.447Z,9.90
2019-04-27T02:14:58.898Z,9.90
2019-04-27T02:17:28.820Z,9.80
2019-04-27T02:19:59.426Z,9.80
2019-04-27T02:22:29.712Z,9.80
2019-04-27T02:24:59.125Z,9.80
2019-04-27T02:27:29.578Z,9.80
2019-04-27T02:30:12.227Z,9.90
2019-04-27T02:33:05.294Z,9.90
2019-04-27T02:35:33.983Z,9.80
2019-04-27T02:38:02.793Z,9.90
2019-04-27T02:40:51.515Z,9.90
2019-04-27T02:43:22.330Z,9.90
2019-04-27T02:45:51.520Z,9.90
2019-04-27T02:48:20.270Z,9.90
2019-04-27T02:50:50.775Z,9.90
2019-04-27T02:53:39.242Z,9.90
2019-04-27T02:56:10.316Z,9.90
2019-04-27T02:58:40.484Z,10.00
2019-04-27T03:01:09.986Z,10.00
2019-04-27T03:03:40.944Z,10.00
2019-04-27T03:06:09.874Z,10.00
2019-04-27T03:08:39.368Z,10.00
2019-04-27T03:11:09.904Z,10.00
2019-04-27T03:13:51.538Z,9.90
2019-04-27T03:16:45.009Z,9.90
2019-04-27T03:19:34.578Z,9.90
2019-04-27T03:22:20.800Z,9.90
2019-04-27T03:25:09.844Z,9.90
2019-04-27T03:27:40.526Z,9.90
2019-04-27T03:30:12.097Z,9.90
2019-04-27T03:32:43.132Z,9.80
2019-04-27T03:35:12.945Z,9.80
2019-04-27T03:37:41.677Z,9.80
2019-04-27T03:40:10.952Z,9.80
2019-04-27T03:42:41.287Z,9.70
2019-04-27T03:45:10.942Z,9.70
2019-04-27T03:47:40.832Z,9.70
2019-04-27T03:50:11.312Z,9.70
2019-04-27T03:52:51.728Z,9.70
2019-04-27T03:55:23.775Z,9.70
2019-04-27T03:58:00.079Z,9.60
2019-04-27T04:00:30.049Z,9.60
2019-04-27T04:03:00.553Z,9.70
2019-04-27T04:05:30.040Z,9.70
2019-04-27T04:08:00.446Z,9.70
2019-04-27T04:10:31.068Z,9.60
2019-04-27T04:13:04.931Z,9.60
2019-04-27T04:15:43.754Z,9.70
2019-04-27T04:18:12.528Z,9.70
2019-04-27T04:20:41.329Z,9.70
2019-04-27T04:23:10.560Z,9.70
2019-04-27T04:25:41.026Z,9.70
2019-04-27T04:28:09.947Z,9.70
2019-04-27T04:30:40.210Z,9.70
2019-04-27T04:33:10.125Z,9.70
2019-04-27T04:35:39.871Z,9.70
2019-04-27T04:38:10.437Z,9.70
2019-04-27T04:40:45.116Z,9.60
2019-04-27T04:43:23.184Z,9.60
2019-04-27T04:46:22.933Z,9.70
2019-04-27T04:48:51.148Z,9.70
2019-04-27T04:51:20.165Z,9.70
2019-04-27T04:53:51.733Z,9.70
2019-04-27T04:56:19.529Z,9.80
2019-04-27T04:58:49.745Z,9.80
2019-04-27T05:01:19.645Z,9.80
2019-04-27T05:03:48.934Z,9.80
2019-04-27T05:06:18.950Z,9.80
2019-04-27T05:08:49.369Z,9.90
2019-04-27T05:11:19.569Z,9.90
2019-04-27T05:13:51.250Z,10.00
2019-04-27T05:16:20.032Z,10.10
2019-04-27T05:18:49.535Z,10.10
2019-04-27T05:21:27.139Z,10.20
2019-04-27T05:23:55.916Z,10.30
2019-04-27T05:26:25.023Z,10.40
2019-04-27T05:28:54.169Z,10.50
2019-04-27T05:31:23.209Z,10.60
2019-04-27T05:33:52.225Z,10.70
2019-04-27T05:36:20.977Z,10.70
2019-04-27T05:38:50.068Z,10.80
2019-04-27T05:41:18.876Z,10.80
2019-04-27T05:44:21.999Z,10.90
2019-04-27T05:47:14.213Z,10.90
2019-04-27T05:49:56.640Z,11.00
2019-04-27T05:52:29.067Z,11.00
2019-04-27T05:54:59.123Z,11.00
2019-04-27T05:57:30.777Z,11.10
2019-04-27T06:00:01.886Z,11.10
2019-04-27T06:02:32.332Z,11.20
2019-04-27T06:05:04.609Z,11.30
2019-04-27T06:07:37.237Z,11.40
2019-04-27T06:10:09.583Z,11.40
2019-04-27T06:12:39.581Z,11.40
2019-04-27T06:15:12.591Z,11.50
2019-04-27T06:17:41.658Z,11.70
2019-04-27T06:20:10.816Z,11.90
2019-04-27T06:22:41.560Z,11.90
2019-04-27T06:25:12.826Z,12.10
2019-04-27T06:27:41.649Z,12.20
2019-04-27T06:30:12.567Z,12.30
2019-04-27T06:32:41.372Z,12.60
2019-04-27T06:35:12.382Z,12.70
2019-04-27T06:37:41.368Z,12.80
2019-04-27T06:40:10.767Z,12.80
2019-04-27T06:42:39.968Z,12.90
2019-04-27T06:45:09.893Z,13.00
2019-04-27T06:47:41.185Z,13.00
2019-04-27T06:50:09.882Z,12.90
2019-04-27T06:52:39.073Z,12.90
2019-04-27T06:55:09.360Z,13.00
2019-04-27T06:57:39.112Z,13.00
2019-04-27T07:00:09.213Z,13.00
2019-04-27T07:02:39.220Z,13.10
2019-04-27T07:05:09.001Z,13.10
2019-04-27T07:07:39.505Z,13.00
2019-04-27T07:10:08.733Z,13.00
2019-04-27T07:12:38.690Z,12.90
2019-04-27T07:15:08.889Z,12.80
2019-04-27T07:17:38.900Z,12.80
2019-04-27T07:20:09.080Z,12.80
2019-04-27T07:22:39.560Z,12.80
2019-04-27T07:25:09.055Z,12.90
2019-04-27T07:27:39.495Z,13.00
2019-04-27T07:30:11.919Z,13.00
2019-04-27T07:32:39.172Z,13.00
2019-04-27T07:35:09.672Z,12.90
2019-04-27T07:37:39.286Z,12.90
2019-04-27T07:40:09.082Z,12.90
2019-04-27T07:42:39.709Z,13.00
2019-04-27T07:45:14.034Z,12.90
2019-04-27T07:47:44.537Z,12.90
2019-04-27T07:50:13.347Z,12.90
2019-04-27T07:52:42.146Z,12.90
2019-04-27T07:55:10.841Z,12.90
2019-04-27T07:57:40.027Z,12.80
2019-04-27T08:00:09.528Z,12.80
2019-04-27T08:02:39.020Z,12.70
2019-04-27T08:05:09.315Z,12.60
2019-04-27T08:07:39.158Z,12.60
2019-04-27T08:10:09.757Z,12.50
2019-04-27T08:12:38.786Z,12.30
2019-04-27T08:15:08.854Z,12.10
2019-04-27T08:17:37.849Z,12.10
2019-04-27T08:20:06.524Z,12.00
2019-04-27T08:22:35.252Z,11.90
2019-04-27T08:25:04.443Z,11.90
2019-04-27T08:27:42.318Z,11.90
2019-04-27T08:30:35.893Z,11.80
2019-04-27T08:33:06.800Z,11.80
2019-04-27T08:35:35.688Z,11.70
2019-04-27T08:38:04.528Z,11.60
2019-04-27T08:40:33.267Z,11.60
2019-04-27T08:43:02.135Z,11.50
2019-04-27T08:45:30.881Z,11.50
2019-04-27T08:47:59.735Z,11.60
2019-04-27T08:50:28.698Z,11.50
2019-04-27T08:52:57.497Z,11.60
2019-04-27T08:55:26.221Z,11.60
2019-04-27T08:57:55.275Z,11.70
2019-04-27T09:00:24.144Z,11.80
2019-04-27T09:02:52.857Z,11.80
2019-04-27T09:05:25.685Z,11.90
2019-04-27T09:08:19.866Z,12.00
2019-04-27T09:10:56.812Z,12.10
2019-04-27T09:13:53.268Z,12.10
2019-04-27T09:16:31.139Z,12.10
2019-04-27T09:19:04.123Z,12.30
2019-04-27T09:21:51.989Z,12.40
2019-04-27T09:24:20.737Z,12.40
2019-04-27T09:26:49.479Z,12.30
2019-04-27T09:29:19.783Z,12.20
2019-04-27T09:31:49.096Z,12.40
2019-04-27T09:34:18.904Z,12.40
2019-04-27T09:36:47.909Z,12.60
2019-04-27T09:39:16.687Z,12.70
2019-04-27T09:41:46.038Z,12.80
2019-04-27T09:44:16.130Z,12.80
2019-04-27T09:46:44.950Z,13.00
2019-04-27T09:49:15.715Z,13.00
2019-04-27T09:51:45.888Z,13.10
2019-04-27T09:54:15.963Z,13.10
2019-04-27T09:56:46.626Z,13.10
2019-04-27T09:59:15.993Z,13.30
2019-04-27T10:01:46.521Z,13.00
2019-04-27T10:04:15.709Z,13.00
2019-04-27T10:06:46.502Z,12.80
2019-04-27T10:09:16.360Z,12.80
2019-04-27T10:11:45.082Z,12.70
2019-04-27T10:14:13.943Z,12.80
2019-04-27T10:16:42.712Z,12.70
2019-04-27T10:19:11.465Z,12.50
2019-04-27T10:21:40.267Z,12.40
2019-04-27T10:24:09.114Z,12.40
2019-04-27T10:26:37.826Z,12.30
2019-04-27T10:29:06.648Z,12.30
2019-04-27T10:31:35.470Z,12.40
2019-04-27T10:34:05.871Z,12.40
2019-04-27T10:36:41.098Z,12.50
2019-04-27T10:39:13.253Z,12.60
2019-04-27T10:41:41.402Z,12.70
2019-04-27T10:44:10.378Z,12.60
2019-04-27T10:46:39.300Z,12.80
2019-04-27T10:49:08.095Z,12.90
2019-04-27T10:51:36.853Z,13.00
2019-04-27T10:54:05.959Z,13.00
2019-04-27T10:56:36.133Z,13.10
2019-04-27T10:59:06.503Z,13.30
2019-04-27T11:01:36.663Z,13.40
2019-04-27T11:04:20.848Z,13.30
2019-04-27T11:06:52.387Z,13.00
2019-04-27T11:09:21.100Z,13.00
2019-04-27T11:11:49.817Z,12.90
2019-04-27T11:14:18.525Z,12.80
2019-04-27T11:16:47.280Z,12.70
2019-04-27T11:19:16.963Z,12.50
2019-04-27T11:21:46.056Z,12.40
2019-04-27T11:24:14.929Z,12.10
2019-04-27T11:26:43.728Z,11.40
2019-04-27T11:29:12.573Z,11.00
2019-04-27T11:31:41.363Z,10.90
2019-04-27T11:34:10.210Z,11.00
2019-04-27T11:37:02.279Z,11.00
2019-04-27T11:39:31.143Z,10.80
2019-04-27T11:42:00.000Z,10.80
2019-04-27T11:44:28.818Z,10.80
2019-04-27T11:46:57.641Z,10.70
2019-04-27T11:49:26.380Z,10.70
2019-04-27T11:51:56.637Z,10.80
2019-04-27T11:54:27.415Z,10.90
2019-04-27T11:56:56.156Z,10.90
2019-04-27T11:59:26.957Z,10.80
2019-04-27T12:01:56.004Z,10.70
2019-04-27T12:04:26.325Z,10.90
2019-04-27T12:06:56.512Z,10.80
2019-04-27T12:09:25.385Z,10.70
2019-04-27T12:11:57.469Z,10.50
2019-04-27T12:14:24.640Z,10.30
2019-04-27T12:16:53.504Z,10.20
2019-04-27T12:19:22.221Z,10.10
2019-04-27T12:21:50.915Z,9.90
2019-04-27T12:24:19.613Z,9.90
2019-04-27T12:27:06.132Z,10.00
2019-04-27T12:30:06.308Z,10.30
2019-04-27T12:32:36.015Z,10.30
2019-04-27T12:35:06.697Z,10.40
2019-04-27T12:37:35.821Z,10.40
2019-04-27T12:40:05.931Z,10.50
2019-04-27T12:42:36.418Z,10.50
2019-04-27T12:45:05.540Z,10.70
2019-04-27T12:47:36.312Z,10.90
2019-04-27T12:50:06.179Z,11.00
2019-04-27T12:52:36.038Z,11.00
2019-04-27T12:55:27.328Z,10.80
2019-04-27T12:58:07.417Z,10.90
2019-04-27T13:00:39.697Z,11.10
2019-04-27T13:03:08.573Z,11.40
2019-04-27T13:05:37.473Z,11.50
2019-04-27T13:08:06.259Z,11.50
2019-04-27T13:10:35.041Z,11.80
2019-04-27T13:13:03.860Z,12.00
2019-04-27T13:15:32.753Z,11.90
2019-04-27T13:18:01.718Z,11.90
2019-04-27T13:20:30.516Z,11.90
2019-04-27T13:23:01.671Z,11.80
2019-04-27T13:25:29.905Z,11.60
2019-04-27T13:27:58.616Z,11.60
2019-04-27T13:30:27.484Z,11.40
2019-04-27T13:32:56.321Z,11.40
2019-04-27T13:35:25.832Z,11.30
2019-04-27T13:37:55.950Z,11.40
2019-04-27T13:40:25.900Z,11.60
2019-04-27T13:43:03.467Z,11.60
2019-04-27T13:45:51.445Z,11.70
2019-04-27T13:48:38.408Z,11.80
2019-04-27T13:51:09.937Z,11.70
2019-04-27T13:53:38.719Z,11.80
2019-04-27T13:56:17.342Z,11.90
2019-04-27T13:58:46.371Z,12.10
2019-04-27T14:01:15.822Z,12.30
2019-04-27T14:03:45.143Z,12.40
2019-04-27T14:06:14.044Z,12.40
2019-04-27T14:08:42.821Z,12.30
2019-04-27T14:11:11.659Z,12.50
2019-04-27T14:13:40.511Z,12.60
2019-04-27T14:16:09.273Z,12.50
2019-04-27T14:18:38.536Z,12.60
2019-04-27T14:21:09.305Z,12.60
2019-04-27T14:23:38.554Z,12.70
2019-04-27T14:26:08.789Z,12.60
2019-04-27T14:28:37.772Z,12.70
2019-04-27T14:31:08.859Z,12.70
2019-04-27T14:33:39.575Z,12.60
2019-04-27T14:36:08.257Z,12.70
2019-04-27T14:38:37.100Z,12.90
2019-04-27T14:41:06.690Z,13.10
2019-04-27T14:43:35.396Z,13.10
2019-04-27T14:46:04.518Z,13.10
2019-04-27T14:48:33.528Z,13.20
2019-04-27T14:51:02.378Z,13.00
2019-04-27T14:53:31.196Z,12.90
2019-04-27T14:55:59.977Z,13.00
2019-04-27T14:58:28.680Z,13.30
2019-04-27T15:00:58.533Z,13.60
2019-04-27T15:03:27.457Z,13.70
2019-04-27T15:05:56.336Z,13.70
2019-04-27T15:08:25.537Z,13.90
2019-04-27T15:10:54.487Z,13.90
2019-04-27T15:13:23.388Z,14.00
2019-04-27T15:15:53.233Z,13.80
2019-04-27T15:18:23.643Z,13.70
2019-04-27T15:20:53.490Z,13.50
2019-04-27T15:23:22.309Z,13.60
2019-04-27T15:25:51.180Z,13.90
2019-04-27T15:28:23.688Z,14.00
2019-04-27T15:31:22.379Z,14.40
2019-04-27T15:34:16.324Z,14.40
2019-04-27T15:37:02.673Z,14.40
2019-04-27T15:40:08.633Z,14.00
2019-04-27T15:42:41.621Z,13.60
2019-04-27T15:45:11.912Z,13.30
2019-04-27T15:47:42.420Z,13.10
2019-04-27T15:50:10.429Z,12.90
2019-04-27T15:52:39.351Z,11.60
2019-04-27T15:55:30.764Z,10.90
2019-04-27T15:57:42.601Z,10.20
2019-04-27T16:00:17.299Z,9.70
2019-04-27T16:02:44.518Z,9.40
2019-04-27T16:05:13.375Z,9.20
2019-04-27T16:07:42.217Z,9.10
2019-04-27T16:10:11.002Z,9.10
2019-04-27T16:12:50.364Z,9.10
2019-04-27T16:15:13.490Z,8.90
2019-04-27T16:17:43.933Z,8.90
2019-04-27T16:20:13.238Z,9.00
2019-04-27T16:22:42.094Z,9.00
2019-04-27T16:25:10.984Z,9.00
2019-04-27T16:27:40.900Z,9.20
2019-04-27T16:30:17.908Z,9.30
2019-04-27T16:32:44.429Z,9.50
2019-04-27T16:35:14.000Z,9.60
2019-04-27T16:38:02.728Z,9.70
2019-04-27T16:40:31.664Z,9.70
2019-04-27T16:43:00.406Z,9.80
2019-04-27T16:45:29.289Z,10.00
2019-04-27T16:47:59.858Z,10.00
2019-04-27T16:50:31.016Z,10.10
2019-04-27T16:53:01.095Z,10.10
2019-04-27T16:55:34.082Z,10.10
2019-04-27T16:58:00.539Z,10.10
2019-04-27T17:00:30.331Z,10.20
2019-04-27T17:03:03.262Z,9.90
2019-04-27T17:05:34.665Z,9.90
2019-04-27T17:08:03.669Z,9.90
2019-04-27T17:10:32.650Z,9.90
2019-04-27T17:13:01.518Z,9.90
2019-04-27T17:15:53.692Z,9.80
2019-04-27T17:18:35.907Z,9.80
2019-04-27T17:21:16.262Z,9.80
2019-04-27T17:23:35.161Z,9.80
2019-04-27T17:26:13.923Z,9.80
2019-04-27T17:28:45.447Z,9.80
2019-04-27T17:31:19.751Z,9.80
2019-04-27T17:33:53.845Z,9.90
2019-04-27T17:36:22.657Z,9.90
2019-04-27T17:38:51.334Z,9.90
2019-04-27T17:41:20.125Z,10.00
2019-04-27T17:43:49.018Z,10.00
2019-04-27T17:46:17.788Z,10.00
2019-04-27T17:48:48.453Z,10.20
2019-04-27T17:51:17.015Z,10.50
2019-04-27T17:53:45.933Z,10.80
2019-04-27T17:56:14.807Z,11.20
2019-04-27T17:58:43.595Z,11.50
2019-04-27T18:01:22.634Z,11.60
2019-04-27T18:03:58.526Z,11.80
2019-04-27T18:06:20.529Z,11.80
2019-04-27T18:08:49.489Z,11.70
2019-04-27T18:11:19.253Z,11.50
2019-04-27T18:13:55.956Z,11.40
2019-04-27T18:16:30.390Z,11.20
2019-04-27T18:19:08.043Z,11.10
2019-04-27T18:21:34.678Z,10.80
2019-04-27T18:24:08.675Z,10.70
2019-04-27T18:26:50.087Z,10.60
2019-04-27T18:29:18.455Z,10.50
2019-04-27T18:31:53.332Z,10.30
2019-04-27T18:34:19.038Z,10.20
2019-04-27T18:36:47.909Z,10.10
2019-04-27T18:39:18.236Z,10.00
2019-04-27T18:41:52.521Z,10.00
2019-04-27T18:44:19.127Z,10.00
2019-04-27T18:46:48.884Z,10.00
2019-04-27T18:49:42.929Z,10.00
2019-04-27T18:52:29.557Z,10.00
2019-04-27T18:54:58.308Z,10.00
2019-04-27T18:57:27.969Z,9.90
2019-04-27T18:59:58.277Z,9.90
2019-04-27T19:02:28.750Z,9.80
2019-04-27T19:04:58.149Z,9.70
2019-04-27T19:07:28.552Z,9.70
2019-04-27T19:09:59.109Z,9.80
2019-04-27T19:12:28.741Z,9.80
2019-04-27T19:14:58.954Z,9.80
2019-04-27T19:17:28.273Z,9.90
2019-04-27T19:19:57.135Z,9.90
2019-04-27T19:22:27.969Z,9.80
2019-04-27T19:24:56.491Z,9.70
2019-04-27T19:27:48.424Z,9.70
2019-04-27T19:30:23.230Z,9.70
2019-04-27T19:32:51.942Z,9.70
2019-04-27T19:35:20.919Z,9.60
2019-04-27T19:37:49.828Z,9.60
2019-04-27T19:40:18.778Z,9.50
2019-04-27T19:42:48.667Z,9.40
2019-04-27T19:45:19.461Z,9.50
2019-04-27T19:47:48.592Z,9.40
2019-04-27T19:50:19.187Z,9.40
2019-04-27T19:52:50.174Z,9.30
2019-04-27T19:55:18.945Z,9.40
2019-04-27T19:57:49.615Z,9.50
2019-04-27T20:00:52.582Z,9.50
2019-04-27T20:03:28.864Z,9.50
2019-04-27T20:05:59.189Z,9.40
2019-04-27T20:08:30.208Z,9.30
2019-04-27T20:10:59.156Z,9.30
2019-04-27T20:13:27.973Z,9.20
2019-04-27T20:15:57.569Z,9.10
2019-04-27T20:18:26.576Z,9.00
2019-04-27T20:20:55.293Z,9.00
2019-04-27T20:23:24.215Z,9.00
2019-04-27T20:25:52.991Z,9.00
2019-04-27T20:28:23.099Z,9.10
2019-04-27T20:30:52.035Z,9.00
2019-04-27T20:33:21.114Z,9.00
2019-04-27T20:35:51.050Z,9.00
2019-04-27T20:38:21.400Z,9.00
2019-04-27T20:40:51.068Z,8.90
2019-04-27T20:43:21.404Z,8.90
2019-04-27T20:45:51.580Z,8.90
2019-04-27T20:48:21.215Z,8.90
2019-04-27T20:50:51.322Z,8.80
2019-04-27T20:53:23.062Z,8.70
2019-04-27T20:55:51.891Z,8.70
2019-04-27T20:58:21.257Z,8.70
2019-04-27T21:00:51.730Z,8.60
2019-04-27T21:03:26.869Z,8.60
2019-04-27T21:06:15.107Z,8.60
2019-04-27T21:08:51.461Z,8.60
2019-04-27T21:11:42.730Z,8.60
2019-04-27T21:14:34.444Z,8.60
2019-04-27T21:20:17.062Z,8.50
2019-04-27T21:22:45.741Z,8.40
2019-04-27T21:25:22.374Z,8.40
2019-04-27T21:27:51.399Z,8.40
2019-04-27T21:30:21.960Z,8.40
2019-04-27T21:32:50.927Z,8.40
2019-04-27T21:35:21.195Z,8.40
2019-04-27T21:37:51.176Z,8.30
2019-04-27T21:40:30.750Z,8.30
2019-04-27T21:43:01.162Z,8.20
2019-04-27T21:45:32.253Z,8.30
2019-04-27T21:48:01.102Z,8.20
2019-04-27T21:50:31.411Z,8.20
2019-04-27T21:53:06.096Z,8.10
2019-04-27T21:55:35.084Z,8.20
2019-04-27T21:58:04.158Z,8.20
2019-04-27T22:00:54.533Z,8.20
2019-04-27T22:03:37.386Z,8.20
2019-04-27T22:06:11.599Z,8.20
2019-04-27T22:08:47.513Z,8.20
2019-04-27T22:11:19.571Z,8.30
2019-04-27T22:18:02.969Z,8.40
2019-04-27T22:20:44.351Z,8.40
2019-04-27T22:23:33.106Z,8.50
2019-04-27T22:26:06.516Z,8.60
2019-04-27T22:28:49.455Z,8.60
2019-04-27T22:31:23.055Z,8.70
2019-04-27T22:33:55.615Z,8.70
2019-04-27T22:36:24.586Z,8.70
2019-04-27T22:38:55.624Z,8.70
2019-04-27T22:41:55.439Z,8.80
2019-04-27T22:44:45.379Z,8.80
2019-04-27T22:47:14.101Z,8.80
2019-04-27T22:49:42.846Z,8.70
2019-04-27T22:52:11.825Z,8.70
2019-04-27T22:54:42.210Z,8.70
2019-04-27T23:00:52.383Z,8.70
2019-04-27T23:03:44.987Z,8.60
2019-04-27T23:06:25.192Z,8.60
2019-04-27T23:08:54.341Z,8.70
2019-04-27T23:11:26.568Z,8.70
2019-04-27T23:13:55.547Z,8.70
2019-04-27T23:16:25.914Z,8.70
2019-04-27T23:18:54.721Z,8.70
2019-04-27T23:21:23.433Z,8.70
2019-04-27T23:23:56.705Z,8.70
2019-04-27T23:26:25.639Z,8.80
2019-04-27T23:28:54.369Z,8.70
2019-04-27T23:31:31.897Z,8.80
2019-04-27T23:34:01.905Z,8.70
2019-04-27T23:36:31.734Z,8.70
2019-04-27T23:39:04.610Z,8.80
2019-04-27T23:41:33.379Z,8.80
2019-04-27T23:44:02.071Z,8.80
2019-04-27T23:46:30.899Z,8.70
2019-04-27T23:49:01.413Z,8.70
2019-04-27T23:51:53.501Z,8.80
2019-04-27T23:54:22.212Z,8.80
2019-04-27T23:56:51.895Z,8.80
2019-04-27T23:59:25.090Z,8.80
